Terminal Aerodrome Forecast
Issued by NWS

Current Version | Previous Version | Text Only | Print | Product List | Glossary Off
Versions: 1 2 3 4 5 6 7 8 9 10 11 12 13 14 15 16

000
FTUS41 KRNK 122322
TAFLWB
TAF
KLWB 122322Z 1300/1324 33010G20KT P6SM -SN BKN035
      TEMPO 1301/1302 2SM -SHSN OVC007
     FM130300 30014G28KT 6SM -SHSN BKN015
     FM130600 30012G24KT P6SM BKN045
     FM131000 30010G20KT P6SM SCT045
     FM132300 21006KT P6SM BKN040=

USA.gov is the U.S. government's official web portal to all federal, state and local government web resources and services.